sensor_id;sensor_type;location;lat;lon;timestamp;pressure;altitude;pressure_sealevel;temperature;humidity
38197;BME280;26543;51.976;4.616;2023-04-27T00:00:55;52971.22;;;-140.72;100.00
38197;BME280;26543;51.976;4.616;2023-04-27T00:03:20;52969.19;;;-140.72;100.00
38197;BME280;26543;51.976;4.616;2023-04-27T00:05:46;52959.06;;;-140.72;100.00
38197;BME280;26543;51.976;4.616;2023-04-27T00:08:11;52971.22;;;-140.72;100.00
38197;BME280;26543;51.976;4.616;2023-04-27T00:10:37;52975.28;;;-140.72;100.00
38197;BME280;26543;51.976;4.616;2023-04-27T00:13:02;52981.38;;;-140.72;100.00
38197;BME280;26543;51.976;4.616;2023-04-27T00:15:27;53005.72;;;-140.72;100.00
38197;BME280;26543;51.976;4.616;2023-04-27T00:17:52;52971.22;;;-140.72;100.00
38197;BME280;26543;51.976;4.616;2023-04-27T00:20:18;52969.19;;;-140.72;100.00
38197;BME280;26543;51.976;4.616;2023-04-27T00:22:44;52959.06;;;-140.72;100.00
38197;BME280;26543;51.976;4.616;2023-04-27T00:25:10;52973.25;;;-140.72;100.00
38197;BME280;26543;51.976;4.616;2023-04-27T00:27:35;52975.28;;;-140.72;100.00
38197;BME280;26543;51.976;4.616;2023-04-27T00:30:01;52967.16;;;-140.72;100.00
38197;BME280;26543;51.976;4.616;2023-04-27T00:32:26;52995.59;;;-140.72;100.00
38197;BME280;26543;51.976;4.616;2023-04-27T00:34:51;52971.22;;;-140.72;100.00
38197;BME280;26543;51.976;4.616;2023-04-27T00:37:17;52987.47;;;-140.72;100.00
38197;BME280;26543;51.976;4.616;2023-04-27T00:39:42;53007.75;;;-140.72;100.00
38197;BME280;26543;51.976;4.616;2023-04-27T00:42:08;52973.25;;;-140.72;100.00
38197;BME280;26543;51.976;4.616;2023-04-27T00:44:37;52979.34;;;-140.72;100.00
38197;BME280;26543;51.976;4.616;2023-04-27T00:47:02;52983.41;;;-140.72;100.00
38197;BME280;26543;51.976;4.616;2023-04-27T00:49:27;53003.69;;;-140.72;100.00
38197;BME280;26543;51.976;4.616;2023-04-27T00:51:54;53003.69;;;-140.72;100.00
38197;BME280;26543;51.976;4.616;2023-04-27T00:54:19;52950.94;;;-140.72;100.00
38197;BME280;26543;51.976;4.616;2023-04-27T00:56:51;52938.75;;;-140.72;100.00
38197;BME280;26543;51.976;4.616;2023-04-27T00:59:17;53015.88;;;-140.72;100.00
38197;BME280;26543;51.976;4.616;2023-04-27T01:01:42;52967.16;;;-140.72;100.00
38197;BME280;26543;51.976;4.616;2023-04-27T01:04:07;53015.88;;;-140.72;100.00
38197;BME280;26543;51.976;4.616;2023-04-27T01:06:33;52948.91;;;-140.72;100.00
38197;BME280;26543;51.976;4.616;2023-04-27T01:08:58;52914.41;;;-140.72;100.00
38197;BME280;26543;51.976;4.616;2023-04-27T01:11:23;52946.88;;;-140.72;100.00
38197;BME280;26543;51.976;4.616;2023-04-27T01:13:48;52969.19;;;-140.72;100.00
38197;BME280;26543;51.976;4.616;2023-04-27T01:16:16;52995.59;;;-140.72;100.00
38197;BME280;26543;51.976;4.616;2023-04-27T01:18:41;52993.56;;;-140.72;100.00
38197;BME280;26543;51.976;4.616;2023-04-27T01:21:06;52983.41;;;-140.72;100.00
38197;BME280;26543;51.976;4.616;2023-04-27T01:23:32;52985.44;;;-140.72;100.00
38197;BME280;26543;51.976;4.616;2023-04-27T01:25:57;52989.50;;;-140.72;100.00
38197;BME280;26543;51.976;4.616;2023-04-27T01:28:22;52999.66;;;-140.72;100.00
38197;BME280;26543;51.976;4.616;2023-04-27T01:30:47;52993.56;;;-140.72;100.00
38197;BME280;26543;51.976;4.616;2023-04-27T01:33:12;52946.88;;;-140.72;100.00
38197;BME280;26543;51.976;4.616;2023-04-27T01:35:38;52995.59;;;-140.72;100.00
38197;BME280;26543;51.976;4.616;2023-04-27T01:38:03;53001.66;;;-140.72;100.00
38197;BME280;26543;51.976;4.616;2023-04-27T01:40:28;52981.38;;;-140.72;100.00
38197;BME280;26543;51.976;4.616;2023-04-27T01:42:53;52985.44;;;-140.72;100.00
38197;BME280;26543;51.976;4.616;2023-04-27T01:45:19;52991.53;;;-140.72;100.00
38197;BME280;26543;51.976;4.616;2023-04-27T01:47:44;52983.41;;;-140.72;100.00
38197;BME280;26543;51.976;4.616;2023-04-27T01:50:09;53001.66;;;-140.72;100.00
38197;BME280;26543;51.976;4.616;2023-04-27T01:52:35;53015.88;;;-140.72;100.00
38197;BME280;26543;51.976;4.616;2023-04-27T01:55:00;52983.41;;;-140.72;100.00
38197;BME280;26543;51.976;4.616;2023-04-27T01:57:25;53007.75;;;-140.72;100.00
38197;BME280;26543;51.976;4.616;2023-04-27T01:59:51;52983.41;;;-140.72;100.00
38197;BME280;26543;51.976;4.616;2023-04-27T02:02:16;52979.34;;;-140.72;100.00
38197;BME280;26543;51.976;4.616;2023-04-27T02:04:41;53001.66;;;-140.72;100.00
38197;BME280;26543;51.976;4.616;2023-04-27T02:07:07;52991.53;;;-140.72;100.00
38197;BME280;26543;51.976;4.616;2023-04-27T02:09:32;52997.63;;;-140.72;100.00
38197;BME280;26543;51.976;4.616;2023-04-27T02:11:57;52997.63;;;-140.72;100.00
38197;BME280;26543;51.976;4.616;2023-04-27T02:14:23;53013.84;;;-140.72;100.00
38197;BME280;26543;51.976;4.616;2023-04-27T02:16:48;52979.34;;;-140.72;100.00
38197;BME280;26543;51.976;4.616;2023-04-27T02:19:13;53015.88;;;-140.72;100.00
38197;BME280;26543;51.976;4.616;2023-04-27T02:21:39;53013.84;;;-140.72;100.00
38197;BME280;26543;51.976;4.616;2023-04-27T02:24:04;53028.06;;;-140.72;100.00
38197;BME280;26543;51.976;4.616;2023-04-27T02:26:30;53001.66;;;-140.72;100.00
38197;BME280;26543;51.976;4.616;2023-04-27T02:28:56;53009.78;;;-140.72;100.00
38197;BME280;26543;51.976;4.616;2023-04-27T02:31:21;53007.75;;;-140.72;100.00
38197;BME280;26543;51.976;4.616;2023-04-27T02:33:47;53003.69;;;-140.72;100.00
38197;BME280;26543;51.976;4.616;2023-04-27T02:38:46;53003.69;;;-140.72;100.00
38197;BME280;26543;51.976;4.616;2023-04-27T02:41:11;53024.00;;;-140.72;100.00
38197;BME280;26543;51.976;4.616;2023-04-27T02:43:36;53030.09;;;-140.72;100.00
38197;BME280;26543;51.976;4.616;2023-04-27T02:46:02;52965.16;;;-140.72;100.00
38197;BME280;26543;51.976;4.616;2023-04-27T02:48:27;52989.50;;;-140.72;100.00
38197;BME280;26543;51.976;4.616;2023-04-27T02:50:52;52991.53;;;-140.72;100.00
38197;BME280;26543;51.976;4.616;2023-04-27T02:53:18;53011.81;;;-140.72;100.00
38197;BME280;26543;51.976;4.616;2023-04-27T02:55:46;53007.75;;;-140.72;100.00
38197;BME280;26543;51.976;4.616;2023-04-27T02:58:12;53013.84;;;-140.72;100.00
38197;BME280;26543;51.976;4.616;2023-04-27T03:00:37;52991.53;;;-140.72;100.00
38197;BME280;26543;51.976;4.616;2023-04-27T03:03:04;52971.22;;;-140.72;100.00
38197;BME280;26543;51.976;4.616;2023-04-27T03:05:30;53021.97;;;-140.72;100.00
38197;BME280;26543;51.976;4.616;2023-04-27T03:07:55;53024.00;;;-140.72;100.00
38197;BME280;26543;51.976;4.616;2023-04-27T03:10:21;53026.03;;;-140.72;100.00
38197;BME280;26543;51.976;4.616;2023-04-27T03:12:46;53013.84;;;-140.72;100.00
38197;BME280;26543;51.976;4.616;2023-04-27T03:15:11;53026.03;;;-140.72;100.00
38197;BME280;26543;51.976;4.616;2023-04-27T03:17:36;53036.16;;;-140.72;100.00
38197;BME280;26543;51.976;4.616;2023-04-27T03:20:01;53034.16;;;-140.72;100.00
38197;BME280;26543;51.976;4.616;2023-04-27T03:22:28;52981.38;;;-140.72;100.00
38197;BME280;26543;51.976;4.616;2023-04-27T03:24:54;52985.44;;;-140.72;100.00
38197;BME280;26543;51.976;4.616;2023-04-27T03:27:20;53005.72;;;-140.72;100.00
38197;BME280;26543;51.976;4.616;2023-04-27T03:29:45;53007.75;;;-140.72;100.00
38197;BME280;26543;51.976;4.616;2023-04-27T03:32:10;53007.75;;;-140.72;100.00
38197;BME280;26543;51.976;4.616;2023-04-27T03:34:35;53007.75;;;-140.72;100.00
38197;BME280;26543;51.976;4.616;2023-04-27T03:37:01;52969.19;;;-140.72;100.00
38197;BME280;26543;51.976;4.616;2023-04-27T03:39:26;53038.19;;;-140.72;100.00
38197;BME280;26543;51.976;4.616;2023-04-27T03:41:51;52957.03;;;-140.72;100.00
38197;BME280;26543;51.976;4.616;2023-04-27T03:44:16;52995.59;;;-140.72;100.00
38197;BME280;26543;51.976;4.616;2023-04-27T03:46:41;52965.16;;;-140.72;100.00
38197;BME280;26543;51.976;4.616;2023-04-27T03:49:07;52993.56;;;-140.72;100.00
38197;BME280;26543;51.976;4.616;2023-04-27T03:51:32;53015.88;;;-140.72;100.00
38197;BME280;26543;51.976;4.616;2023-04-27T03:53:58;52983.41;;;-140.72;100.00
38197;BME280;26543;51.976;4.616;2023-04-27T03:56:23;52999.66;;;-140.72;100.00
38197;BME280;26543;51.976;4.616;2023-04-27T03:58:48;53024.00;;;-140.72;100.00
38197;BME280;26543;51.976;4.616;2023-04-27T04:01:14;53003.69;;;-140.72;100.00
38197;BME280;26543;51.976;4.616;2023-04-27T04:03:40;53015.88;;;-140.72;100.00
38197;BME280;26543;51.976;4.616;2023-04-27T04:06:05;53024.00;;;-140.72;100.00
38197;BME280;26543;51.976;4.616;2023-04-27T04:08:31;53011.81;;;-140.72;100.00
38197;BME280;26543;51.976;4.616;2023-04-27T04:10:58;52995.59;;;-140.72;100.00
38197;BME280;26543;51.976;4.616;2023-04-27T04:13:23;52999.66;;;-140.72;100.00
38197;BME280;26543;51.976;4.616;2023-04-27T04:15:48;53013.84;;;-140.72;100.00
38197;BME280;26543;51.976;4.616;2023-04-27T04:18:13;53007.75;;;-140.72;100.00
38197;BME280;26543;51.976;4.616;2023-04-27T04:20:39;52995.59;;;-140.72;100.00
38197;BME280;26543;51.976;4.616;2023-04-27T04:23:04;53015.88;;;-140.72;100.00
38197;BME280;26543;51.976;4.616;2023-04-27T04:25:30;53013.84;;;-140.72;100.00
38197;BME280;26543;51.976;4.616;2023-04-27T04:27:56;53009.78;;;-140.72;100.00
38197;BME280;26543;51.976;4.616;2023-04-27T04:30:21;53019.94;;;-140.72;100.00
38197;BME280;26543;51.976;4.616;2023-04-27T04:32:47;53034.16;;;-140.72;100.00
38197;BME280;26543;51.976;4.616;2023-04-27T04:35:12;53003.69;;;-140.72;100.00
38197;BME280;26543;51.976;4.616;2023-04-27T04:37:38;53032.13;;;-140.72;100.00
38197;BME280;26543;51.976;4.616;2023-04-27T04:40:04;53030.09;;;-140.72;100.00
38197;BME280;26543;51.976;4.616;2023-04-27T04:42:33;53009.78;;;-140.72;100.00
38197;BME280;26543;51.976;4.616;2023-04-27T04:44:58;53076.75;;;-140.72;100.00
38197;BME280;26543;51.976;4.616;2023-04-27T04:47:23;52993.56;;;-140.72;100.00
38197;BME280;26543;51.976;4.616;2023-04-27T04:49:48;52983.41;;;-140.72;100.00
38197;BME280;26543;51.976;4.616;2023-04-27T04:52:13;53036.16;;;-140.72;100.00
38197;BME280;26543;51.976;4.616;2023-04-27T04:54:39;52989.50;;;-140.72;100.00
38197;BME280;26543;51.976;4.616;2023-04-27T04:57:04;53011.81;;;-140.72;100.00
38197;BME280;26543;51.976;4.616;2023-04-27T04:59:32;53003.69;;;-140.72;100.00
38197;BME280;26543;51.976;4.616;2023-04-27T05:01:57;53003.69;;;-140.72;100.00
38197;BME280;26543;51.976;4.616;2023-04-27T05:04:22;53003.69;;;-140.72;100.00
38197;BME280;26543;51.976;4.616;2023-04-27T05:06:47;52985.44;;;-140.72;100.00
38197;BME280;26543;51.976;4.616;2023-04-27T05:09:13;53050.38;;;-140.72;100.00
38197;BME280;26543;51.976;4.616;2023-04-27T05:11:38;52989.50;;;-140.72;100.00
38197;BME280;26543;51.976;4.616;2023-04-27T05:14:03;53003.69;;;-140.72;100.00
38197;BME280;26543;51.976;4.616;2023-04-27T05:16:28;53024.00;;;-140.72;100.00
38197;BME280;26543;51.976;4.616;2023-04-27T05:18:53;53003.69;;;-140.72;100.00
38197;BME280;26543;51.976;4.616;2023-04-27T05:21:19;52985.44;;;-140.72;100.00
38197;BME280;26543;51.976;4.616;2023-04-27T05:23:46;52999.66;;;-140.72;100.00
38197;BME280;26543;51.976;4.616;2023-04-27T05:26:15;52997.63;;;-140.72;100.00
38197;BME280;26543;51.976;4.616;2023-04-27T05:28:40;52987.47;;;-140.72;100.00
38197;BME280;26543;51.976;4.616;2023-04-27T05:31:06;52942.81;;;-140.72;100.00
38197;BME280;26543;51.976;4.616;2023-04-27T05:33:31;52999.66;;;-140.72;100.00
38197;BME280;26543;51.976;4.616;2023-04-27T05:35:56;52993.56;;;-140.72;100.00
38197;BME280;26543;51.976;4.616;2023-04-27T05:38:22;53017.91;;;-140.72;100.00
38197;BME280;26543;51.976;4.616;2023-04-27T05:40:52;53007.75;;;-140.72;100.00
38197;BME280;26543;51.976;4.616;2023-04-27T05:43:17;52959.06;;;-140.72;100.00
38197;BME280;26543;51.976;4.616;2023-04-27T05:45:43;52997.63;;;-140.72;100.00
38197;BME280;26543;51.976;4.616;2023-04-27T05:48:08;52983.41;;;-140.72;100.00
38197;BME280;26543;51.976;4.616;2023-04-27T05:50:33;53005.72;;;-140.72;100.00
38197;BME280;26543;51.976;4.616;2023-04-27T05:52:58;52975.28;;;-140.72;100.00
38197;BME280;26543;51.976;4.616;2023-04-27T05:55:24;52961.09;;;-140.72;100.00
38197;BME280;26543;51.976;4.616;2023-04-27T05:57:50;52975.28;;;-140.72;100.00
38197;BME280;26543;51.976;4.616;2023-04-27T06:00:15;53013.84;;;-140.72;100.00
38197;BME280;26543;51.976;4.616;2023-04-27T06:02:41;52973.25;;;-140.72;100.00
38197;BME280;26543;51.976;4.616;2023-04-27T06:05:06;52967.16;;;-140.72;100.00
38197;BME280;26543;51.976;4.616;2023-04-27T06:07:31;52948.91;;;-140.72;100.00
38197;BME280;26543;51.976;4.616;2023-04-27T06:09:57;52991.53;;;-140.72;100.00
38197;BME280;26543;51.976;4.616;2023-04-27T06:12:22;52955.00;;;-140.72;100.00
38197;BME280;26543;51.976;4.616;2023-04-27T06:14:48;52950.94;;;-140.72;100.00
38197;BME280;26543;51.976;4.616;2023-04-27T06:17:13;52934.69;;;-140.72;100.00
38197;BME280;26543;51.976;4.616;2023-04-27T06:19:38;52957.03;;;-140.72;100.00
38197;BME280;26543;51.976;4.616;2023-04-27T06:22:03;52930.66;;;-140.72;100.00
38197;BME280;26543;51.976;4.616;2023-04-27T06:24:28;52967.16;;;-140.72;100.00
38197;BME280;26543;51.976;4.616;2023-04-27T06:26:54;52963.13;;;-140.72;100.00
38197;BME280;26543;51.976;4.616;2023-04-27T06:29:19;52902.22;;;-140.72;100.00
38197;BME280;26543;51.976;4.616;2023-04-27T06:31:44;52908.31;;;-140.72;100.00
38197;BME280;26543;51.976;4.616;2023-04-27T06:34:11;52938.75;;;-140.72;100.00
38197;BME280;26543;51.976;4.616;2023-04-27T06:36:36;52934.69;;;-140.72;100.00
38197;BME280;26543;51.976;4.616;2023-04-27T06:39:01;52965.16;;;-140.72;100.00
38197;BME280;26543;51.976;4.616;2023-04-27T06:41:26;52898.16;;;-140.72;100.00
38197;BME280;26543;51.976;4.616;2023-04-27T06:43:52;52904.25;;;-140.72;100.00
38197;BME280;26543;51.976;4.616;2023-04-27T06:46:17;52926.59;;;-140.72;100.00
38197;BME280;26543;51.976;4.616;2023-04-27T06:48:42;52948.91;;;-140.72;100.00
38197;BME280;26543;51.976;4.616;2023-04-27T06:51:08;52924.56;;;-140.72;100.00
38197;BME280;26543;51.976;4.616;2023-04-27T06:53:33;52920.50;;;-140.72;100.00
38197;BME280;26543;51.976;4.616;2023-04-27T06:55:58;52902.22;;;-140.72;100.00
38197;BME280;26543;51.976;4.616;2023-04-27T06:58:24;52879.91;;;-140.72;100.00
38197;BME280;26543;51.976;4.616;2023-04-27T07:00:51;52918.47;;;-140.72;100.00
38197;BME280;26543;51.976;4.616;2023-04-27T07:03:16;52888.03;;;-140.72;100.00
38197;BME280;26543;51.976;4.616;2023-04-27T07:05:41;52896.16;;;-140.72;100.00
38197;BME280;26543;51.976;4.616;2023-04-27T07:08:07;52924.56;;;-140.72;100.00
38197;BME280;26543;51.976;4.616;2023-04-27T07:10:32;52922.53;;;-140.72;100.00
38197;BME280;26543;51.976;4.616;2023-04-27T07:12:57;52886.00;;;-140.72;100.00
38197;BME280;26543;51.976;4.616;2023-04-27T07:15:23;52892.09;;;-140.72;91.96
38197;BME280;26543;51.976;4.616;2023-04-27T07:17:49;52934.69;;;-140.72;80.01
38197;BME280;26543;51.976;4.616;2023-04-27T07:20:15;52823.09;;;-140.72;53.13
38197;BME280;26543;51.976;4.616;2023-04-27T07:22:41;52841.34;;;-140.72;34.69
38197;BME280;26543;51.976;4.616;2023-04-27T07:25:06;52916.44;;;-140.72;4.60
38197;BME280;26543;51.976;4.616;2023-04-27T07:27:32;52867.72;;;-140.72;0.00
38197;BME280;26543;51.976;4.616;2023-04-27T07:29:57;52855.56;;;-140.72;0.00
38197;BME280;26543;51.976;4.616;2023-04-27T07:32:22;52900.19;;;-140.72;0.00
38197;BME280;26543;51.976;4.616;2023-04-27T07:34:48;52859.63;;;-140.72;0.00
38197;BME280;26543;51.976;4.616;2023-04-27T07:37:14;52853.53;;;-140.72;0.00
38197;BME280;26543;51.976;4.616;2023-04-27T07:39:40;52849.47;;;-140.72;0.00
38197;BME280;26543;51.976;4.616;2023-04-27T07:42:05;52819.03;;;-140.72;0.00
38197;BME280;26543;51.976;4.616;2023-04-27T07:44:30;52823.09;;;-140.72;0.00
38197;BME280;26543;51.976;4.616;2023-04-27T07:46:56;52806.84;;;-140.72;0.00
38197;BME280;26543;51.976;4.616;2023-04-27T07:49:22;52814.97;;;-140.72;0.00
38197;BME280;26543;51.976;4.616;2023-04-27T07:51:48;52849.47;;;-140.72;0.00
38197;BME280;26543;51.976;4.616;2023-04-27T07:54:14;52837.28;;;-140.72;0.00
38197;BME280;26543;51.976;4.616;2023-04-27T07:56:40;52875.84;;;-140.72;0.00
38197;BME280;26543;51.976;4.616;2023-04-27T07:59:05;52823.09;;;-140.72;0.00
38197;BME280;26543;51.976;4.616;2023-04-27T08:01:30;52804.81;;;-140.72;0.00
38197;BME280;26543;51.976;4.616;2023-04-27T08:03:56;52817.00;;;-140.72;0.00
38197;BME280;26543;51.976;4.616;2023-04-27T08:06:21;52810.91;;;-140.72;0.00
38197;BME280;26543;51.976;4.616;2023-04-27T08:08:46;52812.94;;;-140.72;0.00
38197;BME280;26543;51.976;4.616;2023-04-27T08:11:11;52784.53;;;-140.72;0.00
38197;BME280;26543;51.976;4.616;2023-04-27T08:13:37;52758.16;;;-140.72;0.00
38197;BME280;26543;51.976;4.616;2023-04-27T08:16:02;52788.59;;;-140.72;0.00
38197;BME280;26543;51.976;4.616;2023-04-27T08:18:27;52764.25;;;-140.72;0.00
38197;BME280;26543;51.976;4.616;2023-04-27T08:20:59;52752.06;;;-140.72;0.00
38197;BME280;26543;51.976;4.616;2023-04-27T08:23:27;52768.28;;;-140.72;0.00
38197;BME280;26543;51.976;4.616;2023-04-27T08:25:53;52750.03;;;-140.72;0.00
38197;BME280;26543;51.976;4.616;2023-04-27T08:28:18;52750.03;;;-140.72;0.00
38197;BME280;26543;51.976;4.616;2023-04-27T08:30:43;52772.34;;;-140.72;0.00
38197;BME280;26543;51.976;4.616;2023-04-27T08:33:09;52715.53;;;-140.72;0.00
38197;BME280;26543;51.976;4.616;2023-04-27T08:35:34;52756.13;;;-140.72;0.00
38197;BME280;26543;51.976;4.616;2023-04-27T08:38:00;52760.19;;;-140.72;0.00
38197;BME280;26543;51.976;4.616;2023-04-27T08:40:25;52719.59;;;-140.72;0.00
38197;BME280;26543;51.976;4.616;2023-04-27T08:42:54;52691.19;;;-140.72;0.00
38197;BME280;26543;51.976;4.616;2023-04-27T08:45:20;52683.06;;;-140.72;0.00
38197;BME280;26543;51.976;4.616;2023-04-27T08:47:46;52739.88;;;-140.72;0.00
38197;BME280;26543;51.976;4.616;2023-04-27T08:50:11;52672.91;;;-140.72;0.00
38197;BME280;26543;51.976;4.616;2023-04-27T08:52:36;52713.50;;;-140.72;0.00
38197;BME280;26543;51.976;4.616;2023-04-27T08:55:02;52687.13;;;-140.72;0.00
38197;BME280;26543;51.976;4.616;2023-04-27T08:57:28;52656.69;;;-140.72;0.00
38197;BME280;26543;51.976;4.616;2023-04-27T08:59:57;52664.81;;;-140.72;0.00
38197;BME280;26543;51.976;4.616;2023-04-27T09:02:30;52612.03;;;-140.72;0.00
38197;BME280;26543;51.976;4.616;2023-04-27T09:04:56;52581.59;;;-140.72;0.00
38197;BME280;26543;51.976;4.616;2023-04-27T09:07:34;52610.00;;;-140.72;0.00
38197;BME280;26543;51.976;4.616;2023-04-27T09:10:02;52591.75;;;-140.72;0.00
38197;BME280;26543;51.976;4.616;2023-04-27T09:12:28;52607.97;;;-140.72;0.00
38197;BME280;26543;51.976;4.616;2023-04-27T09:14:59;52587.69;;;-140.72;0.00
38197;BME280;26543;51.976;4.616;2023-04-27T09:17:29;52573.50;;;-140.72;0.00
38197;BME280;26543;51.976;4.616;2023-04-27T09:20:04;52545.06;;;-140.72;0.00
38197;BME280;26543;51.976;4.616;2023-04-27T09:22:41;52553.19;;;-140.72;0.00
38197;BME280;26543;51.976;4.616;2023-04-27T09:25:06;52577.53;;;-140.72;0.00
38197;BME280;26543;51.976;4.616;2023-04-27T09:27:32;52536.97;;;-140.72;0.00
38197;BME280;26543;51.976;4.616;2023-04-27T09:29:57;52512.59;;;-140.72;0.00
38197;BME280;26543;51.976;4.616;2023-04-27T09:32:22;52504.50;;;-140.72;0.00
38197;BME280;26543;51.976;4.616;2023-04-27T09:34:47;52512.59;;;-140.72;0.00
38197;BME280;26543;51.976;4.616;2023-04-27T09:37:13;52502.47;;;-140.72;0.00
38197;BME280;26543;51.976;4.616;2023-04-27T09:39:38;52593.78;;;-140.72;0.00
38197;BME280;26543;51.976;4.616;2023-04-27T09:42:05;52589.72;;;-140.72;0.00
38197;BME280;26543;51.976;4.616;2023-04-27T09:44:31;52561.31;;;-140.72;0.00
38197;BME280;26543;51.976;4.616;2023-04-27T09:46:57;52543.03;;;-140.72;0.00
38197;BME280;26543;51.976;4.616;2023-04-27T09:49:22;52524.78;;;-140.72;0.00
38197;BME280;26543;51.976;4.616;2023-04-27T09:51:49;52476.09;;;-140.72;0.00
38197;BME280;26543;51.976;4.616;2023-04-27T09:54:14;52443.63;;;-140.72;0.00
38197;BME280;26543;51.976;4.616;2023-04-27T10:02:04;52403.03;;;-140.72;0.00
38197;BME280;26543;51.976;4.616;2023-04-27T10:09:21;52388.84;;;-140.72;0.00
38197;BME280;26543;51.976;4.616;2023-04-27T10:11:50;52386.81;;;-140.72;0.00
38197;BME280;26543;51.976;4.616;2023-04-27T10:14:16;52403.03;;;-140.72;0.00
38197;BME280;26543;51.976;4.616;2023-04-27T10:16:46;52463.91;;;-140.72;0.00
38197;BME280;26543;51.976;4.616;2023-04-27T10:19:13;52429.41;;;-140.72;0.00
38197;BME280;26543;51.976;4.616;2023-04-27T10:21:51;52449.72;;;-140.72;0.00
38197;BME280;26543;51.976;4.616;2023-04-27T10:24:17;52346.22;;;-140.72;0.00
38197;BME280;26543;51.976;4.616;2023-04-27T10:26:46;52315.78;;;-140.72;0.00
38197;BME280;26543;51.976;4.616;2023-04-27T10:29:11;52293.47;;;-140.72;0.00
38197;BME280;26543;51.976;4.616;2023-04-27T10:31:43;52289.41;;;-140.72;0.00
38197;BME280;26543;51.976;4.616;2023-04-27T10:34:09;52277.22;;;-140.72;0.00
38197;BME280;26543;51.976;4.616;2023-04-27T10:36:36;52307.66;;;-140.72;0.00
38197;BME280;26543;51.976;4.616;2023-04-27T10:39:02;52252.88;;;-140.72;0.00
38197;BME280;26543;51.976;4.616;2023-04-27T10:41:37;52291.44;;;-140.72;0.00
38197;BME280;26543;51.976;4.616;2023-04-27T10:44:12;52252.88;;;-140.72;0.00
38197;BME280;26543;51.976;4.616;2023-04-27T10:46:48;52210.28;;;-140.72;0.00
38197;BME280;26543;51.976;4.616;2023-04-27T10:49:13;52240.72;;;-140.72;0.00
38197;BME280;26543;51.976;4.616;2023-04-27T10:51:39;52179.84;;;-140.72;0.00
38197;BME280;26543;51.976;4.616;2023-04-27T10:54:05;52206.22;;;-140.72;0.00
38197;BME280;26543;51.976;4.616;2023-04-27T10:56:31;52179.84;;;-140.72;0.00
38197;BME280;26543;51.976;4.616;2023-04-27T10:59:00;52234.63;;;-140.72;0.00
38197;BME280;26543;51.976;4.616;2023-04-27T11:01:26;52155.50;;;-140.72;0.00
38197;BME280;26543;51.976;4.616;2023-04-27T11:03:53;52110.84;;;-140.72;0.00
38197;BME280;26543;51.976;4.616;2023-04-27T11:06:19;52183.91;;;-140.72;0.00
38197;BME280;26543;51.976;4.616;2023-04-27T11:08:44;52208.25;;;-140.72;0.00
38197;BME280;26543;51.976;4.616;2023-04-27T11:11:12;52269.13;;;-140.72;0.00
38197;BME280;26543;51.976;4.616;2023-04-27T11:13:38;52202.16;;;-140.72;0.00
38197;BME280;26543;51.976;4.616;2023-04-27T11:16:04;52159.56;;;-140.72;0.00
38197;BME280;26543;51.976;4.616;2023-04-27T11:18:30;52121.00;;;-140.72;0.00
38197;BME280;26543;51.976;4.616;2023-04-27T11:21:10;52143.31;;;-140.72;0.00
38197;BME280;26543;51.976;4.616;2023-04-27T11:23:36;52110.84;;;-140.72;0.00
38197;BME280;26543;51.976;4.616;2023-04-27T11:28:33;52118.97;;;-140.72;0.00
38197;BME280;26543;51.976;4.616;2023-04-27T11:30:58;52228.53;;;-140.72;0.00
38197;BME280;26543;51.976;4.616;2023-04-27T11:33:24;52216.34;;;-140.72;0.00
38197;BME280;26543;51.976;4.616;2023-04-27T11:35:50;52252.88;;;-140.72;0.00
38197;BME280;26543;51.976;4.616;2023-04-27T11:38:16;52212.31;;;-140.72;0.00
38197;BME280;26543;51.976;4.616;2023-04-27T11:40:42;52194.03;;;-140.72;0.00
38197;BME280;26543;51.976;4.616;2023-04-27T11:43:10;52173.75;;;-140.72;0.00
38197;BME280;26543;51.976;4.616;2023-04-27T11:45:36;52147.38;;;-140.72;0.00
38197;BME280;26543;51.976;4.616;2023-04-27T11:48:05;52204.19;;;-140.72;0.00
38197;BME280;26543;51.976;4.616;2023-04-27T11:50:31;52159.56;;;-140.72;0.00
38197;BME280;26543;51.976;4.616;2023-04-27T11:52:59;52092.59;;;-140.72;0.00
38197;BME280;26543;51.976;4.616;2023-04-27T11:55:24;52045.94;;;-140.72;0.00
38197;BME280;26543;51.976;4.616;2023-04-27T11:57:54;52043.91;;;-140.72;0.00
38197;BME280;26543;51.976;4.616;2023-04-27T12:00:20;52035.78;;;-140.72;0.00
38197;BME280;26543;51.976;4.616;2023-04-27T12:02:45;52019.56;;;-140.72;0.00
38197;BME280;26543;51.976;4.616;2023-04-27T12:05:10;52060.13;;;-140.72;0.00
38197;BME280;26543;51.976;4.616;2023-04-27T12:07:36;52108.81;;;-140.72;0.00
38197;BME280;26543;51.976;4.616;2023-04-27T12:10:02;52204.19;;;-140.72;0.00
38197;BME280;26543;51.976;4.616;2023-04-27T12:12:27;52305.63;;;-140.72;0.00
38197;BME280;26543;51.976;4.616;2023-04-27T12:14:52;52248.81;;;-140.72;0.00
38197;BME280;26543;51.976;4.616;2023-04-27T12:17:18;52141.28;;;-140.72;0.00
38197;BME280;26543;51.976;4.616;2023-04-27T12:19:43;52285.34;;;-140.72;0.00
38197;BME280;26543;51.976;4.616;2023-04-27T12:22:08;52350.28;;;-140.72;0.00
38197;BME280;26543;51.976;4.616;2023-04-27T12:24:34;52240.72;;;-140.72;0.00
38197;BME280;26543;51.976;4.616;2023-04-27T12:27:00;52236.66;;;-140.72;0.00
38197;BME280;26543;51.976;4.616;2023-04-27T12:29:25;52171.72;;;-140.72;0.00
38197;BME280;26543;51.976;4.616;2023-04-27T12:31:50;52252.88;;;-140.72;0.00
38197;BME280;26543;51.976;4.616;2023-04-27T12:34:16;52206.22;;;-140.72;0.00
38197;BME280;26543;51.976;4.616;2023-04-27T12:36:41;52238.69;;;-140.72;0.00
38197;BME280;26543;51.976;4.616;2023-04-27T12:39:16;52230.56;;;-140.72;0.00
38197;BME280;26543;51.976;4.616;2023-04-27T12:41:42;52208.25;;;-140.72;0.00
38197;BME280;26543;51.976;4.616;2023-04-27T12:44:08;52224.47;;;-140.72;0.00
38197;BME280;26543;51.976;4.616;2023-04-27T12:46:33;52238.69;;;-140.72;0.00